createdAt,value
2019-03-22T00:01:21.486Z,30.90
2019-03-22T00:03:50.365Z,31.00
2019-03-22T00:06:18.642Z,31.20
2019-03-22T00:08:46.686Z,31.20
2019-03-22T00:11:14.601Z,31.30
2019-03-22T00:13:42.385Z,31.60
2019-03-22T00:16:10.435Z,31.70
2019-03-22T00:21:05.961Z,31.80
2019-03-22T00:23:33.906Z,31.80
2019-03-22T00:33:24.924Z,31.90
2019-03-22T00:35:52.941Z,31.90
2019-03-22T00:38:21.005Z,31.90
2019-03-22T00:40:48.948Z,31.90
2019-03-22T00:43:16.864Z,32.00
2019-03-22T00:45:44.995Z,32.10
2019-03-22T00:50:40.728Z,32.20
2019-03-22T00:55:36.700Z,32.20
2019-03-22T01:00:32.658Z,32.30
2019-03-22T01:03:00.629Z,32.30
2019-03-22T01:07:56.073Z,32.40
2019-03-22T01:10:24.022Z,32.50
2019-03-22T01:12:52.057Z,32.50
2019-03-22T01:15:21.063Z,32.50
2019-03-22T01:17:50.942Z,32.60
2019-03-22T01:20:18.949Z,32.70
2019-03-22T01:22:48.866Z,32.60
2019-03-22T01:25:17.168Z,32.60
2019-03-22T01:30:13.231Z,32.90
2019-03-22T01:35:14.626Z,32.90
2019-03-22T01:40:07.961Z,33.00
2019-03-22T01:45:06.020Z,33.00
2019-03-22T01:47:43.746Z,33.10
2019-03-22T01:50:13.105Z,33.00
2019-03-22T01:52:42.076Z,32.90
2019-03-22T01:55:10.291Z,33.00
2019-03-22T01:57:38.315Z,33.00
2019-03-22T02:00:16.167Z,33.00
2019-03-22T02:02:44.282Z,33.00
2019-03-22T02:05:12.832Z,33.10
2019-03-22T02:10:09.425Z,33.30
2019-03-22T02:12:37.386Z,33.30
2019-03-22T02:25:20.804Z,33.60
2019-03-22T02:27:48.778Z,33.80
2019-03-22T02:30:25.899Z,34.00
2019-03-22T02:32:53.815Z,34.00
2019-03-22T02:35:28.848Z,33.90
2019-03-22T02:37:53.761Z,35.40
2019-03-22T02:40:25.227Z,34.80
2019-03-22T02:42:56.116Z,34.50
2019-03-22T02:45:26.869Z,34.40
2019-03-22T02:47:57.354Z,36.10
2019-03-22T02:50:27.003Z,36.00
2019-03-22T02:52:55.278Z,34.60
2019-03-22T02:55:23.888Z,37.10
2019-03-22T02:57:58.532Z,35.80
2019-03-22T03:00:29.773Z,35.50
2019-03-22T03:03:04.630Z,36.60
2019-03-22T03:05:32.862Z,34.70
2019-03-22T03:08:03.275Z,35.60
2019-03-22T03:10:44.994Z,37.00
2019-03-22T03:13:12.980Z,35.30
2019-03-22T03:15:47.411Z,35.10
2019-03-22T03:18:33.853Z,35.80
2019-03-22T03:21:02.790Z,35.00
2019-03-22T03:23:32.074Z,37.00
2019-03-22T03:26:00.134Z,34.90
2019-03-22T03:28:36.796Z,35.30
2019-03-22T03:30:59.049Z,37.30
2019-03-22T03:33:37.131Z,36.20
2019-03-22T03:36:05.122Z,35.40
2019-03-22T03:38:36.025Z,36.20
2019-03-22T03:41:06.752Z,36.00
2019-03-22T03:43:35.618Z,35.90
2019-03-22T03:46:03.640Z,35.30
2019-03-22T03:48:31.592Z,38.10
2019-03-22T03:51:00.816Z,36.50
2019-03-22T03:53:29.097Z,36.90
2019-03-22T03:55:58.291Z,36.20
2019-03-22T03:58:26.315Z,36.90
2019-03-22T04:00:54.296Z,36.50
2019-03-22T04:03:22.265Z,38.00
2019-03-22T04:05:50.253Z,37.30
2019-03-22T04:08:18.294Z,36.70
2019-03-22T04:10:46.661Z,38.40
2019-03-22T04:13:14.754Z,38.80
2019-03-22T04:15:42.691Z,38.80
2019-03-22T04:18:10.590Z,37.00
2019-03-22T04:20:38.575Z,38.00
2019-03-22T04:23:06.570Z,37.30
2019-03-22T04:25:34.688Z,36.60
2019-03-22T04:28:03.222Z,38.30
2019-03-22T04:30:31.367Z,37.10
2019-03-22T04:32:59.426Z,36.60
2019-03-22T04:35:27.408Z,38.40
2019-03-22T04:37:55.599Z,38.40
2019-03-22T04:40:25.222Z,38.60
2019-03-22T04:42:53.352Z,38.40
2019-03-22T04:45:21.643Z,36.90
2019-03-22T04:47:51.603Z,36.90
2019-03-22T04:50:21.059Z,38.20
2019-03-22T04:52:49.808Z,39.10
2019-03-22T04:55:18.340Z,37.00
2019-03-22T04:57:47.107Z,37.00
2019-03-22T05:00:15.897Z,38.90
2019-03-22T05:02:45.219Z,37.80
2019-03-22T05:05:14.064Z,37.90
2019-03-22T05:07:43.519Z,38.80
2019-03-22T05:10:14.429Z,38.00
2019-03-22T05:12:43.949Z,39.70
2019-03-22T05:15:14.047Z,38.70
2019-03-22T05:17:43.018Z,37.80
2019-03-22T05:20:11.723Z,37.80
2019-03-22T05:22:42.032Z,37.90
2019-03-22T05:25:10.458Z,37.70
2019-03-22T05:27:41.511Z,39.70
2019-03-22T05:30:22.905Z,37.90
2019-03-22T05:32:51.133Z,38.50
2019-03-22T05:35:20.198Z,38.00
2019-03-22T05:37:51.475Z,38.40
2019-03-22T05:42:47.389Z,38.10
2019-03-22T05:45:15.421Z,38.40
2019-03-22T05:47:43.397Z,38.20
2019-03-22T05:50:11.442Z,39.60
2019-03-22T05:52:39.514Z,40.80
2019-03-22T05:55:08.028Z,38.60
2019-03-22T05:57:38.804Z,38.50
2019-03-22T06:00:07.076Z,38.60
2019-03-22T06:02:35.218Z,38.70
2019-03-22T06:05:03.527Z,38.80
2019-03-22T06:07:31.655Z,39.10
2019-03-22T06:09:59.764Z,39.10
2019-03-22T06:12:28.258Z,39.80
2019-03-22T06:14:59.402Z,39.10
2019-03-22T06:20:14.965Z,40.00
2019-03-22T06:22:42.994Z,39.10
2019-03-22T06:25:11.655Z,39.10
2019-03-22T06:27:39.849Z,38.40
2019-03-22T06:30:08.130Z,40.40
2019-03-22T06:32:36.388Z,39.30
2019-03-22T06:35:07.076Z,39.50
2019-03-22T06:37:35.136Z,40.60
2019-03-22T06:40:03.805Z,41.80
2019-03-22T06:42:31.929Z,41.80
2019-03-22T06:45:00.032Z,42.10
2019-03-22T06:47:28.022Z,39.50
2019-03-22T06:49:56.128Z,39.50
2019-03-22T06:52:24.222Z,40.10
2019-03-22T06:54:52.406Z,40.00
2019-03-22T06:57:26.327Z,40.00
2019-03-22T07:00:05.765Z,40.60
2019-03-22T07:02:24.837Z,40.30
2019-03-22T07:07:35.399Z,40.00
2019-03-22T07:10:04.572Z,39.60
2019-03-22T07:12:33.261Z,40.40
2019-03-22T07:15:01.368Z,39.40
2019-03-22T07:17:29.429Z,40.60
2019-03-22T07:19:58.716Z,39.70
2019-03-22T07:22:26.839Z,41.70
2019-03-22T07:24:55.299Z,41.90
2019-03-22T07:27:44.340Z,39.70
2019-03-22T07:30:18.712Z,40.20
2019-03-22T07:32:46.951Z,41.60
2019-03-22T07:35:18.026Z,40.20
2019-03-22T07:37:46.210Z,40.70
2019-03-22T07:40:36.577Z,39.90
2019-03-22T07:43:07.709Z,39.90
2019-03-22T07:45:50.671Z,40.40
2019-03-22T07:48:46.444Z,40.40
2019-03-22T07:51:17.408Z,40.80
2019-03-22T07:53:48.875Z,41.20
2019-03-22T07:56:16.998Z,40.90
2019-03-22T07:58:45.022Z,40.30
2019-03-22T08:01:13.822Z,40.30
2019-03-22T08:03:41.805Z,40.50
2019-03-22T08:06:10.099Z,40.20
2019-03-22T08:08:40.275Z,40.60
2019-03-22T08:11:08.434Z,39.70
2019-03-22T08:13:36.355Z,39.80
2019-03-22T08:16:04.689Z,39.90
2019-03-22T08:18:32.944Z,39.30
2019-03-22T08:21:01.075Z,39.10
2019-03-22T08:23:29.304Z,37.90
2019-03-22T08:25:59.475Z,39.60
2019-03-22T08:28:28.296Z,38.30
2019-03-22T08:30:56.452Z,38.70
2019-03-22T08:33:24.616Z,38.10
2019-03-22T08:35:52.709Z,37.80
2019-03-22T08:38:20.686Z,37.70
2019-03-22T08:40:48.682Z,37.50
2019-03-22T08:43:16.944Z,37.30
2019-03-22T08:45:44.947Z,37.40
2019-03-22T08:48:13.023Z,38.40
2019-03-22T08:50:41.051Z,37.70
2019-03-22T08:53:09.093Z,37.30
2019-03-22T08:55:37.116Z,37.00
2019-03-22T08:58:05.255Z,36.80
2019-03-22T09:00:39.575Z,36.60
2019-03-22T09:03:04.177Z,36.30
2019-03-22T09:05:33.165Z,35.80
2019-03-22T09:08:01.260Z,35.20
2019-03-22T09:10:29.604Z,35.20
2019-03-22T09:12:57.919Z,34.40
2019-03-22T09:15:26.240Z,34.20
2019-03-22T09:17:54.267Z,33.40
2019-03-22T09:20:22.265Z,32.60
2019-03-22T09:22:50.733Z,32.20
2019-03-22T09:25:18.713Z,31.50
2019-03-22T09:27:46.833Z,30.60
2019-03-22T09:30:15.267Z,30.20
2019-03-22T09:32:43.264Z,29.90
2019-03-22T09:35:11.343Z,29.50
2019-03-22T09:37:39.352Z,28.80
2019-03-22T09:40:08.602Z,28.50
2019-03-22T09:42:36.922Z,27.90
2019-03-22T09:45:05.709Z,27.40
2019-03-22T09:47:33.884Z,27.30
2019-03-22T09:50:02.106Z,27.00
2019-03-22T09:52:30.158Z,26.30
2019-03-22T09:54:58.097Z,25.80
2019-03-22T09:57:26.179Z,25.50
2019-03-22T09:59:54.202Z,25.20
2019-03-22T10:02:22.283Z,24.90
2019-03-22T10:04:50.288Z,24.90
2019-03-22T10:07:18.247Z,24.20
2019-03-22T10:09:46.327Z,23.70
2019-03-22T10:12:14.412Z,23.50
2019-03-22T10:14:42.519Z,23.20
2019-03-22T10:17:10.641Z,22.80
2019-03-22T10:19:38.706Z,22.60
2019-03-22T10:22:07.072Z,22.30
2019-03-22T10:24:35.127Z,21.80
2019-03-22T10:27:05.205Z,21.50
2019-03-22T10:29:32.998Z,21.40
2019-03-22T10:32:01.059Z,21.40
2019-03-22T10:34:29.120Z,21.30
2019-03-22T10:36:57.087Z,21.00
2019-03-22T10:39:25.184Z,20.70
2019-03-22T10:41:53.245Z,20.40
2019-03-22T10:44:21.275Z,20.00
2019-03-22T10:46:49.391Z,19.70
2019-03-22T10:49:17.529Z,19.20
2019-03-22T10:51:56.115Z,19.10
2019-03-22T10:54:15.372Z,19.00
2019-03-22T10:56:43.468Z,18.50
2019-03-22T10:59:11.660Z,18.40
2019-03-22T11:01:48.643Z,18.10
2019-03-22T11:06:37.824Z,17.80
2019-03-22T11:09:07.631Z,17.60
2019-03-22T11:11:35.757Z,17.60
2019-03-22T11:14:03.920Z,17.30
2019-03-22T11:16:32.093Z,16.40
2019-03-22T11:19:00.174Z,17.00
2019-03-22T11:21:28.243Z,17.00
2019-03-22T11:23:56.280Z,17.00
2019-03-22T11:26:24.253Z,16.70
2019-03-22T11:28:52.231Z,16.60
2019-03-22T11:31:28.144Z,16.50
2019-03-22T11:33:50.314Z,16.30
2019-03-22T11:36:18.430Z,16.00
2019-03-22T11:38:46.719Z,15.90
2019-03-22T11:41:14.898Z,15.50
2019-03-22T11:43:43.017Z,15.60
2019-03-22T11:46:11.110Z,15.50
2019-03-22T11:48:39.283Z,15.20
2019-03-22T11:51:07.216Z,15.20
2019-03-22T11:53:35.476Z,15.10
2019-03-22T11:56:04.204Z,14.80
2019-03-22T11:58:32.318Z,15.00
2019-03-22T12:01:00.587Z,15.10
2019-03-22T12:03:28.870Z,16.60
2019-03-22T12:05:56.872Z,15.90
2019-03-22T12:08:25.598Z,15.20
2019-03-22T12:10:53.677Z,15.30
2019-03-22T12:13:21.738Z,13.90
2019-03-22T12:15:49.750Z,15.30
2019-03-22T12:18:18.272Z,15.40
2019-03-22T12:20:47.131Z,15.20
2019-03-22T12:23:15.142Z,15.20
2019-03-22T12:25:43.216Z,15.10
2019-03-22T12:28:11.254Z,15.00
2019-03-22T12:30:39.289Z,14.80
2019-03-22T12:33:07.284Z,14.70
2019-03-22T12:35:35.355Z,14.50
2019-03-22T12:38:03.455Z,14.40
2019-03-22T12:40:32.167Z,14.20
2019-03-22T12:43:02.026Z,13.80
2019-03-22T12:45:33.059Z,14.30
2019-03-22T12:48:45.566Z,14.30
2019-03-22T12:51:19.178Z,13.80
2019-03-22T12:53:49.603Z,14.50
2019-03-22T12:57:02.316Z,14.20
2019-03-22T12:59:32.717Z,14.30
2019-03-22T13:02:00.715Z,14.50
2019-03-22T13:04:28.901Z,14.60
2019-03-22T13:06:56.931Z,14.70
2019-03-22T13:09:25.027Z,14.70
2019-03-22T13:11:53.025Z,14.70
2019-03-22T13:14:21.175Z,15.00
2019-03-22T13:16:49.251Z,14.90
2019-03-22T13:19:19.449Z,15.10
2019-03-22T13:22:07.206Z,14.90
2019-03-22T13:24:38.344Z,14.70
2019-03-22T13:27:09.205Z,14.80
2019-03-22T13:29:37.272Z,14.80
2019-03-22T13:32:05.367Z,14.90
2019-03-22T13:34:33.397Z,14.70
2019-03-22T13:37:03.331Z,14.70
2019-03-22T13:39:31.358Z,14.60
2019-03-22T13:42:49.432Z,14.60
2019-03-22T13:45:19.556Z,14.70
2019-03-22T13:47:47.538Z,14.80
2019-03-22T13:50:15.707Z,14.90
2019-03-22T13:52:43.763Z,14.90
2019-03-22T13:55:11.978Z,14.80
2019-03-22T13:57:40.089Z,14.70
2019-03-22T14:03:04.340Z,14.70
2019-03-22T14:05:32.418Z,14.80
2019-03-22T14:08:00.552Z,14.90
2019-03-22T14:10:32.694Z,14.70
2019-03-22T14:13:00.967Z,15.10
2019-03-22T14:15:28.983Z,14.90
2019-03-22T14:17:57.474Z,15.20
2019-03-22T14:20:25.824Z,15.10
2019-03-22T14:23:20.943Z,15.20
2019-03-22T14:25:49.339Z,15.40
2019-03-22T14:42:10.150Z,15.10
2019-03-22T14:44:38.275Z,15.10
2019-03-22T14:55:10.564Z,15.10
2019-03-22T15:20:14.947Z,15.40
2019-03-22T15:23:01.138Z,15.30
2019-03-22T15:25:38.595Z,15.10
2019-03-22T15:49:04.571Z,16.20
2019-03-22T16:23:43.389Z,17.70
2019-03-22T16:26:11.375Z,18.20
2019-03-22T16:28:39.395Z,18.40
2019-03-22T16:31:07.303Z,18.70
2019-03-22T16:33:35.137Z,18.90
2019-03-22T16:36:03.118Z,19.10
2019-03-22T16:38:31.034Z,19.30
2019-03-22T16:40:58.916Z,19.50
2019-03-22T16:43:26.829Z,19.60
2019-03-22T16:45:54.806Z,19.70
2019-03-22T16:48:22.747Z,19.80
2019-03-22T16:50:50.798Z,20.00
2019-03-22T16:53:18.910Z,20.30
2019-03-22T16:55:47.937Z,20.30
2019-03-22T16:58:15.845Z,20.40
2019-03-22T17:00:46.647Z,20.60
2019-03-22T17:03:14.558Z,20.90
2019-03-22T17:05:43.383Z,21.00
2019-03-22T17:08:12.467Z,21.10
2019-03-22T17:10:41.427Z,21.40
2019-03-22T17:13:09.354Z,21.30
2019-03-22T17:15:42.577Z,21.40
2019-03-22T17:21:23.516Z,22.10
2019-03-22T17:26:48.378Z,22.20
2019-03-22T17:29:22.682Z,22.60
2019-03-22T17:31:47.256Z,22.70
2019-03-22T17:34:15.557Z,22.70
2019-03-22T17:36:44.534Z,23.00
2019-03-22T17:39:12.433Z,23.30
2019-03-22T17:42:08.855Z,23.20
2019-03-22T17:44:36.865Z,23.50
2019-03-22T17:47:05.064Z,23.20
2019-03-22T17:49:33.910Z,23.70
2019-03-22T17:52:04.660Z,23.80
2019-03-22T17:54:32.674Z,24.10
2019-03-22T17:57:00.720Z,24.30
2019-03-22T20:11:06.922Z,29.60
2019-03-22T20:13:39.782Z,29.60
2019-03-22T20:52:37.528Z,30.60
2019-03-22T20:55:27.791Z,30.80
2019-03-22T21:39:21.114Z,32.20
2019-03-22T21:41:48.950Z,32.30
2019-03-22T21:44:16.786Z,33.10
2019-03-22T21:46:44.727Z,32.90
2019-03-22T21:49:12.956Z,33.10
2019-03-22T21:51:40.934Z,33.10
2019-03-22T21:54:08.984Z,33.30
2019-03-22T21:56:36.911Z,33.50
2019-03-22T21:59:04.855Z,33.60
2019-03-22T22:01:32.850Z,33.80
2019-03-22T22:04:00.856Z,33.90
2019-03-22T22:06:28.723Z,34.00
2019-03-22T22:08:56.574Z,34.10
2019-03-22T22:11:24.579Z,34.20
2019-03-22T22:13:52.582Z,34.20
2019-03-22T22:16:20.580Z,33.40
2019-03-22T22:18:48.475Z,34.50
2019-03-22T22:21:16.321Z,33.80
2019-03-22T22:23:44.335Z,34.60
2019-03-22T22:26:12.457Z,33.80
2019-03-22T22:28:40.395Z,34.80
2019-03-22T22:31:08.903Z,35.20
2019-03-22T22:36:24.378Z,35.20
2019-03-22T22:38:52.411Z,34.90
2019-03-22T22:41:20.179Z,35.10
2019-03-22T22:43:48.097Z,34.20
2019-03-22T22:46:16.106Z,35.60
2019-03-22T22:48:44.059Z,35.30
2019-03-22T22:51:12.040Z,35.20
2019-03-22T22:53:39.951Z,34.20
2019-03-22T22:56:07.965Z,34.50
2019-03-22T22:58:35.937Z,36.60
2019-03-22T23:01:04.127Z,36.20
2019-03-22T23:03:32.172Z,34.30
2019-03-22T23:06:09.090Z,34.20
2019-03-22T23:08:29.825Z,34.50
2019-03-22T23:10:57.651Z,36.00
2019-03-22T23:13:25.652Z,35.20
2019-03-22T23:15:53.428Z,35.30
2019-03-22T23:18:21.376Z,35.10
2019-03-22T23:20:49.361Z,34.20
2019-03-22T23:23:17.252Z,35.10
2019-03-22T23:25:45.326Z,34.40
2019-03-22T23:28:13.227Z,34.40
2019-03-22T23:30:41.142Z,35.20
2019-03-22T23:33:09.032Z,35.10
2019-03-22T23:35:37.078Z,35.10
2019-03-22T23:38:04.826Z,36.90
2019-03-22T23:40:32.737Z,37.00
2019-03-22T23:43:00.734Z,34.30
2019-03-22T23:45:28.584Z,34.30
2019-03-22T23:47:56.358Z,34.30
2019-03-22T23:50:24.332Z,35.20
2019-03-22T23:52:52.254Z,34.40
2019-03-22T23:55:20.132Z,36.30
2019-03-22T23:57:50.639Z,34.60
